Main page
METAR-TAF:

METAR-TAF

Airports :

Valence-Chabeuil Airport

Valence, France

latitude: 44-54-58N, longitude: 4-58-06E, elevation: 160 m

Current weather observation

The report was made 36 minutes ago, at 12:30 UTC
Wind 11 kt from the Southwest
Temperature 23°C
Humidity 57%
Pressure 1008 hPa
Visibility 10 km or more
Scattered clouds at a height of 4100 ft
Broken clouds at a height of 22000 ft

METAR: LFLU 201230Z AUTO 23011KT 9999 SCT041 BKN220 23/14 Q1008

Time: 15:06 (13:06 UTC)


TAF: missing

Weather observations and forecasts of more than 4000 airports (METAR and TAF reports).

The available stations are represented by yellow and red dots on the map.

Hover mouse over dot to see the name of the station.

Then click to see weather observations and forecasts.

To change the map : click on the green buttons with a black cross to zoom in, on the green button with a dash to zoom out, or on the green arrows for adjacent maps.


METAR-TAF: